sensor_id;sensor_type;location;lat;lon;timestamp;P1;durP1;ratioP1;P2;durP2;ratioP2
23658;SDS011;12006;42.666;23.326;2022-08-16T00:01:25;9.55;;;6.88;;
23658;SDS011;12006;42.666;23.326;2022-08-16T00:03:51;7.93;;;6.95;;
23658;SDS011;12006;42.666;23.326;2022-08-16T00:06:16;7.93;;;7.00;;
23658;SDS011;12006;42.666;23.326;2022-08-16T00:08:42;7.22;;;6.47;;
23658;SDS011;12006;42.666;23.326;2022-08-16T00:11:08;10.35;;;7.28;;
23658;SDS011;12006;42.666;23.326;2022-08-16T00:13:35;7.75;;;6.45;;
23658;SDS011;12006;42.666;23.326;2022-08-16T00:16:00;8.40;;;6.55;;
23658;SDS011;12006;42.666;23.326;2022-08-16T00:18:26;7.75;;;6.72;;
23658;SDS011;12006;42.666;23.326;2022-08-16T00:20:51;9.05;;;6.82;;
23658;SDS011;12006;42.666;23.326;2022-08-16T00:23:16;8.07;;;6.72;;
23658;SDS011;12006;42.666;23.326;2022-08-16T00:25:42;8.52;;;6.63;;
23658;SDS011;12006;42.666;23.326;2022-08-16T00:28:07;8.07;;;6.38;;
23658;SDS011;12006;42.666;23.326;2022-08-16T00:30:33;7.80;;;6.95;;
23658;SDS011;12006;42.666;23.326;2022-08-16T00:32:59;8.13;;;6.65;;
23658;SDS011;12006;42.666;23.326;2022-08-16T00:35:26;9.95;;;6.57;;
23658;SDS011;12006;42.666;23.326;2022-08-16T00:37:51;11.32;;;7.65;;
23658;SDS011;12006;42.666;23.326;2022-08-16T00:40:21;9.25;;;6.53;;
23658;SDS011;12006;42.666;23.326;2022-08-16T00:42:47;8.13;;;7.18;;
23658;SDS011;12006;42.666;23.326;2022-08-16T00:45:26;7.55;;;6.13;;
23658;SDS011;12006;42.666;23.326;2022-08-16T00:47:54;8.32;;;6.90;;
23658;SDS011;12006;42.666;23.326;2022-08-16T00:50:20;9.77;;;6.25;;
23658;SDS011;12006;42.666;23.326;2022-08-16T00:52:46;7.15;;;6.40;;
23658;SDS011;12006;42.666;23.326;2022-08-16T00:55:11;8.75;;;6.10;;
23658;SDS011;12006;42.666;23.326;2022-08-16T00:57:36;8.23;;;6.65;;
23658;SDS011;12006;42.666;23.326;2022-08-16T01:00:04;7.50;;;6.55;;
23658;SDS011;12006;42.666;23.326;2022-08-16T01:02:29;7.95;;;6.93;;
23658;SDS011;12006;42.666;23.326;2022-08-16T01:04:55;7.72;;;6.53;;
23658;SDS011;12006;42.666;23.326;2022-08-16T01:07:20;8.55;;;7.15;;
23658;SDS011;12006;42.666;23.326;2022-08-16T01:09:45;7.78;;;6.55;;
23658;SDS011;12006;42.666;23.326;2022-08-16T01:12:11;8.95;;;7.03;;
23658;SDS011;12006;42.666;23.326;2022-08-16T01:14:38;8.32;;;6.43;;
23658;SDS011;12006;42.666;23.326;2022-08-16T01:17:04;10.00;;;6.68;;
23658;SDS011;12006;42.666;23.326;2022-08-16T01:19:41;8.68;;;7.20;;
23658;SDS011;12006;42.666;23.326;2022-08-16T01:24:42;8.32;;;6.28;;
23658;SDS011;12006;42.666;23.326;2022-08-16T01:27:10;7.28;;;6.45;;
23658;SDS011;12006;42.666;23.326;2022-08-16T01:30:20;7.38;;;6.55;;
23658;SDS011;12006;42.666;23.326;2022-08-16T01:32:25;7.30;;;6.43;;
23658;SDS011;12006;42.666;23.326;2022-08-16T01:34:51;6.78;;;5.78;;
23658;SDS011;12006;42.666;23.326;2022-08-16T01:37:16;9.10;;;7.20;;
23658;SDS011;12006;42.666;23.326;2022-08-16T01:39:41;7.07;;;6.40;;
23658;SDS011;12006;42.666;23.326;2022-08-16T01:42:07;7.95;;;6.30;;
23658;SDS011;12006;42.666;23.326;2022-08-16T01:44:37;7.55;;;6.75;;
23658;SDS011;12006;42.666;23.326;2022-08-16T01:47:02;6.78;;;5.70;;
23658;SDS011;12006;42.666;23.326;2022-08-16T01:49:35;7.93;;;6.25;;
23658;SDS011;12006;42.666;23.326;2022-08-16T01:52:03;7.15;;;6.07;;
23658;SDS011;12006;42.666;23.326;2022-08-16T01:54:29;9.18;;;7.28;;
23658;SDS011;12006;42.666;23.326;2022-08-16T01:56:54;8.35;;;6.32;;
23658;SDS011;12006;42.666;23.326;2022-08-16T01:59:20;8.20;;;6.88;;
23658;SDS011;12006;42.666;23.326;2022-08-16T02:01:46;9.18;;;6.72;;
23658;SDS011;12006;42.666;23.326;2022-08-16T02:04:11;8.05;;;6.50;;
23658;SDS011;12006;42.666;23.326;2022-08-16T02:06:38;9.38;;;6.72;;
23658;SDS011;12006;42.666;23.326;2022-08-16T02:09:05;7.28;;;6.00;;
23658;SDS011;12006;42.666;23.326;2022-08-16T02:11:31;7.72;;;6.15;;
23658;SDS011;12006;42.666;23.326;2022-08-16T02:13:56;9.02;;;7.15;;
23658;SDS011;12006;42.666;23.326;2022-08-16T02:16:22;9.00;;;6.07;;
23658;SDS011;12006;42.666;23.326;2022-08-16T02:18:47;8.80;;;7.35;;
23658;SDS011;12006;42.666;23.326;2022-08-16T02:21:13;8.82;;;7.75;;
23658;SDS011;12006;42.666;23.326;2022-08-16T02:23:39;9.13;;;7.40;;
23658;SDS011;12006;42.666;23.326;2022-08-16T02:26:05;7.85;;;7.05;;
23658;SDS011;12006;42.666;23.326;2022-08-16T02:28:30;6.68;;;6.05;;
23658;SDS011;12006;42.666;23.326;2022-08-16T02:30:56;8.38;;;6.15;;
23658;SDS011;12006;42.666;23.326;2022-08-16T02:33:23;8.93;;;6.75;;
23658;SDS011;12006;42.666;23.326;2022-08-16T02:35:49;7.57;;;6.63;;
23658;SDS011;12006;42.666;23.326;2022-08-16T02:38:14;7.20;;;5.85;;
23658;SDS011;12006;42.666;23.326;2022-08-16T02:40:39;7.50;;;6.72;;
23658;SDS011;12006;42.666;23.326;2022-08-16T02:43:05;6.93;;;5.78;;
23658;SDS011;12006;42.666;23.326;2022-08-16T02:45:31;13.00;;;6.30;;
23658;SDS011;12006;42.666;23.326;2022-08-16T02:47:56;6.60;;;5.47;;
23658;SDS011;12006;42.666;23.326;2022-08-16T02:50:22;8.65;;;7.10;;
23658;SDS011;12006;42.666;23.326;2022-08-16T02:52:48;9.18;;;7.28;;
23658;SDS011;12006;42.666;23.326;2022-08-16T02:55:13;8.63;;;7.47;;
23658;SDS011;12006;42.666;23.326;2022-08-16T02:57:38;11.23;;;7.72;;
23658;SDS011;12006;42.666;23.326;2022-08-16T03:00:05;12.07;;;7.40;;
23658;SDS011;12006;42.666;23.326;2022-08-16T03:02:33;9.00;;;7.70;;
23658;SDS011;12006;42.666;23.326;2022-08-16T03:04:59;9.15;;;7.32;;
23658;SDS011;12006;42.666;23.326;2022-08-16T03:07:24;8.60;;;6.65;;
23658;SDS011;12006;42.666;23.326;2022-08-16T03:09:49;8.30;;;6.93;;
23658;SDS011;12006;42.666;23.326;2022-08-16T03:12:15;9.18;;;6.97;;
23658;SDS011;12006;42.666;23.326;2022-08-16T03:14:40;10.43;;;8.23;;
23658;SDS011;12006;42.666;23.326;2022-08-16T03:17:05;9.65;;;7.30;;
23658;SDS011;12006;42.666;23.326;2022-08-16T03:19:31;9.30;;;7.68;;
23658;SDS011;12006;42.666;23.326;2022-08-16T03:21:57;11.43;;;7.93;;
23658;SDS011;12006;42.666;23.326;2022-08-16T03:24:22;10.80;;;8.25;;
23658;SDS011;12006;42.666;23.326;2022-08-16T03:26:48;10.27;;;7.63;;
23658;SDS011;12006;42.666;23.326;2022-08-16T03:29:13;9.65;;;7.30;;
23658;SDS011;12006;42.666;23.326;2022-08-16T03:31:38;10.65;;;8.60;;
23658;SDS011;12006;42.666;23.326;2022-08-16T03:34:04;10.23;;;8.00;;
23658;SDS011;12006;42.666;23.326;2022-08-16T03:36:29;9.98;;;7.88;;
23658;SDS011;12006;42.666;23.326;2022-08-16T03:38:54;10.13;;;7.35;;
23658;SDS011;12006;42.666;23.326;2022-08-16T03:41:19;8.55;;;7.43;;
23658;SDS011;12006;42.666;23.326;2022-08-16T03:43:46;11.07;;;8.23;;
23658;SDS011;12006;42.666;23.326;2022-08-16T03:46:11;10.38;;;7.75;;
23658;SDS011;12006;42.666;23.326;2022-08-16T03:48:37;9.45;;;7.50;;
23658;SDS011;12006;42.666;23.326;2022-08-16T03:51:05;10.40;;;7.57;;
23658;SDS011;12006;42.666;23.326;2022-08-16T03:53:30;8.98;;;7.20;;
23658;SDS011;12006;42.666;23.326;2022-08-16T03:55:55;10.93;;;8.32;;
23658;SDS011;12006;42.666;23.326;2022-08-16T03:58:21;10.45;;;8.55;;
23658;SDS011;12006;42.666;23.326;2022-08-16T04:00:46;13.07;;;8.98;;
23658;SDS011;12006;42.666;23.326;2022-08-16T04:03:13;10.32;;;8.38;;
23658;SDS011;12006;42.666;23.326;2022-08-16T04:05:40;8.88;;;7.07;;
23658;SDS011;12006;42.666;23.326;2022-08-16T04:08:06;9.25;;;7.78;;
23658;SDS011;12006;42.666;23.326;2022-08-16T04:10:31;11.15;;;8.65;;
23658;SDS011;12006;42.666;23.326;2022-08-16T04:12:57;10.82;;;8.45;;
23658;SDS011;12006;42.666;23.326;2022-08-16T04:15:22;10.60;;;8.10;;
23658;SDS011;12006;42.666;23.326;2022-08-16T04:17:48;12.32;;;9.27;;
23658;SDS011;12006;42.666;23.326;2022-08-16T04:20:13;9.20;;;7.30;;
23658;SDS011;12006;42.666;23.326;2022-08-16T04:22:39;12.07;;;8.70;;
23658;SDS011;12006;42.666;23.326;2022-08-16T04:25:04;9.50;;;8.48;;
23658;SDS011;12006;42.666;23.326;2022-08-16T04:27:30;11.73;;;8.35;;
23658;SDS011;12006;42.666;23.326;2022-08-16T04:29:55;10.32;;;8.35;;
23658;SDS011;12006;42.666;23.326;2022-08-16T04:32:21;10.35;;;7.78;;
23658;SDS011;12006;42.666;23.326;2022-08-16T04:34:46;9.77;;;8.20;;
23658;SDS011;12006;42.666;23.326;2022-08-16T04:37:12;11.27;;;8.43;;
23658;SDS011;12006;42.666;23.326;2022-08-16T04:39:37;12.00;;;8.40;;
23658;SDS011;12006;42.666;23.326;2022-08-16T04:42:03;11.18;;;8.23;;
23658;SDS011;12006;42.666;23.326;2022-08-16T04:44:28;12.65;;;9.32;;
23658;SDS011;12006;42.666;23.326;2022-08-16T04:46:53;12.57;;;9.60;;
23658;SDS011;12006;42.666;23.326;2022-08-16T04:49:19;9.93;;;8.73;;
23658;SDS011;12006;42.666;23.326;2022-08-16T04:51:45;13.90;;;9.30;;
23658;SDS011;12006;42.666;23.326;2022-08-16T04:54:11;10.68;;;8.85;;
23658;SDS011;12006;42.666;23.326;2022-08-16T04:56:36;11.10;;;9.02;;
23658;SDS011;12006;42.666;23.326;2022-08-16T04:59:02;12.48;;;9.52;;
23658;SDS011;12006;42.666;23.326;2022-08-16T05:01:27;10.73;;;9.27;;
23658;SDS011;12006;42.666;23.326;2022-08-16T05:03:53;12.68;;;9.40;;
23658;SDS011;12006;42.666;23.326;2022-08-16T05:06:18;14.30;;;11.00;;
23658;SDS011;12006;42.666;23.326;2022-08-16T05:08:44;13.70;;;9.88;;
23658;SDS011;12006;42.666;23.326;2022-08-16T05:11:09;13.07;;;9.95;;
23658;SDS011;12006;42.666;23.326;2022-08-16T05:13:36;14.13;;;10.85;;
23658;SDS011;12006;42.666;23.326;2022-08-16T05:16:02;15.60;;;10.88;;
23658;SDS011;12006;42.666;23.326;2022-08-16T05:18:27;14.68;;;10.63;;
23658;SDS011;12006;42.666;23.326;2022-08-16T05:20:53;11.32;;;9.68;;
23658;SDS011;12006;42.666;23.326;2022-08-16T05:23:18;15.27;;;10.20;;
23658;SDS011;12006;42.666;23.326;2022-08-16T05:25:44;13.23;;;10.27;;
23658;SDS011;12006;42.666;23.326;2022-08-16T05:28:09;13.13;;;10.43;;
23658;SDS011;12006;42.666;23.326;2022-08-16T05:30:35;12.02;;;10.60;;
23658;SDS011;12006;42.666;23.326;2022-08-16T05:33:01;12.95;;;10.35;;
23658;SDS011;12006;42.666;23.326;2022-08-16T05:35:26;11.50;;;9.85;;
23658;SDS011;12006;42.666;23.326;2022-08-16T05:37:51;10.63;;;8.73;;
23658;SDS011;12006;42.666;23.326;2022-08-16T05:40:16;12.55;;;9.40;;
23658;SDS011;12006;42.666;23.326;2022-08-16T05:42:42;12.23;;;9.48;;
23658;SDS011;12006;42.666;23.326;2022-08-16T05:45:07;13.30;;;9.77;;
23658;SDS011;12006;42.666;23.326;2022-08-16T05:47:32;11.55;;;9.23;;
23658;SDS011;12006;42.666;23.326;2022-08-16T05:49:58;12.38;;;9.05;;
23658;SDS011;12006;42.666;23.326;2022-08-16T05:52:23;11.18;;;8.65;;
23658;SDS011;12006;42.666;23.326;2022-08-16T05:54:48;12.35;;;9.32;;
23658;SDS011;12006;42.666;23.326;2022-08-16T05:57:15;11.57;;;8.50;;
23658;SDS011;12006;42.666;23.326;2022-08-16T05:59:41;9.48;;;8.35;;
23658;SDS011;12006;42.666;23.326;2022-08-16T06:02:06;9.95;;;8.48;;
23658;SDS011;12006;42.666;23.326;2022-08-16T06:04:32;11.07;;;8.98;;
23658;SDS011;12006;42.666;23.326;2022-08-16T06:06:57;10.85;;;9.88;;
23658;SDS011;12006;42.666;23.326;2022-08-16T06:09:23;12.50;;;8.93;;
23658;SDS011;12006;42.666;23.326;2022-08-16T06:11:49;11.63;;;9.20;;
23658;SDS011;12006;42.666;23.326;2022-08-16T06:14:15;10.50;;;8.75;;
23658;SDS011;12006;42.666;23.326;2022-08-16T06:16:40;10.70;;;9.60;;
23658;SDS011;12006;42.666;23.326;2022-08-16T06:19:06;9.75;;;8.60;;
23658;SDS011;12006;42.666;23.326;2022-08-16T06:21:31;10.32;;;8.23;;
23658;SDS011;12006;42.666;23.326;2022-08-16T06:23:56;11.43;;;9.18;;
23658;SDS011;12006;42.666;23.326;2022-08-16T06:26:22;9.40;;;7.95;;
23658;SDS011;12006;42.666;23.326;2022-08-16T06:28:47;9.50;;;8.43;;
23658;SDS011;12006;42.666;23.326;2022-08-16T06:31:13;8.93;;;8.02;;
23658;SDS011;12006;42.666;23.326;2022-08-16T06:33:38;10.02;;;8.18;;
23658;SDS011;12006;42.666;23.326;2022-08-16T06:36:04;8.80;;;7.47;;
23658;SDS011;12006;42.666;23.326;2022-08-16T06:38:30;9.55;;;8.15;;
23658;SDS011;12006;42.666;23.326;2022-08-16T06:40:56;10.40;;;8.52;;
23658;SDS011;12006;42.666;23.326;2022-08-16T06:43:21;10.90;;;8.75;;
23658;SDS011;12006;42.666;23.326;2022-08-16T06:45:46;9.75;;;8.38;;
23658;SDS011;12006;42.666;23.326;2022-08-16T06:48:12;10.57;;;8.50;;
23658;SDS011;12006;42.666;23.326;2022-08-16T06:50:38;9.50;;;8.27;;
23658;SDS011;12006;42.666;23.326;2022-08-16T06:53:03;11.38;;;8.07;;
23658;SDS011;12006;42.666;23.326;2022-08-16T06:55:29;9.52;;;8.43;;
23658;SDS011;12006;42.666;23.326;2022-08-16T06:57:55;9.65;;;7.68;;
23658;SDS011;12006;42.666;23.326;2022-08-16T07:00:20;8.73;;;7.75;;
23658;SDS011;12006;42.666;23.326;2022-08-16T07:02:46;10.25;;;7.57;;
23658;SDS011;12006;42.666;23.326;2022-08-16T07:05:12;10.23;;;8.40;;
23658;SDS011;12006;42.666;23.326;2022-08-16T07:07:38;7.05;;;6.30;;
23658;SDS011;12006;42.666;23.326;2022-08-16T07:10:04;8.82;;;7.88;;
23658;SDS011;12006;42.666;23.326;2022-08-16T07:12:30;8.43;;;7.60;;
23658;SDS011;12006;42.666;23.326;2022-08-16T07:14:55;8.65;;;7.75;;
23658;SDS011;12006;42.666;23.326;2022-08-16T07:17:21;8.73;;;7.82;;
23658;SDS011;12006;42.666;23.326;2022-08-16T07:19:49;8.43;;;7.15;;
23658;SDS011;12006;42.666;23.326;2022-08-16T07:22:15;7.97;;;6.80;;
23658;SDS011;12006;42.666;23.326;2022-08-16T07:24:40;9.98;;;6.85;;
23658;SDS011;12006;42.666;23.326;2022-08-16T07:27:08;8.48;;;7.55;;
23658;SDS011;12006;42.666;23.326;2022-08-16T07:29:33;9.57;;;7.47;;
23658;SDS011;12006;42.666;23.326;2022-08-16T07:31:59;8.82;;;7.93;;
23658;SDS011;12006;42.666;23.326;2022-08-16T07:34:24;7.90;;;7.10;;
23658;SDS011;12006;42.666;23.326;2022-08-16T07:36:50;9.75;;;8.75;;
23658;SDS011;12006;42.666;23.326;2022-08-16T07:39:15;12.60;;;8.10;;
23658;SDS011;12006;42.666;23.326;2022-08-16T07:41:41;11.98;;;8.55;;
23658;SDS011;12006;42.666;23.326;2022-08-16T07:44:08;10.73;;;8.38;;
23658;SDS011;12006;42.666;23.326;2022-08-16T07:46:34;9.23;;;8.23;;
23658;SDS011;12006;42.666;23.326;2022-08-16T07:48:59;9.82;;;7.88;;
23658;SDS011;12006;42.666;23.326;2022-08-16T07:51:24;9.27;;;8.10;;
23658;SDS011;12006;42.666;23.326;2022-08-16T07:53:50;7.93;;;7.13;;
23658;SDS011;12006;42.666;23.326;2022-08-16T07:56:18;8.30;;;7.45;;
23658;SDS011;12006;42.666;23.326;2022-08-16T07:58:44;7.18;;;6.35;;
23658;SDS011;12006;42.666;23.326;2022-08-16T08:01:09;8.18;;;7.38;;
23658;SDS011;12006;42.666;23.326;2022-08-16T08:03:35;7.75;;;6.65;;
23658;SDS011;12006;42.666;23.326;2022-08-16T08:06:00;9.70;;;8.35;;
23658;SDS011;12006;42.666;23.326;2022-08-16T08:08:25;9.95;;;6.70;;
23658;SDS011;12006;42.666;23.326;2022-08-16T08:10:51;8.73;;;7.28;;
23658;SDS011;12006;42.666;23.326;2022-08-16T08:13:16;7.88;;;7.07;;
23658;SDS011;12006;42.666;23.326;2022-08-16T08:15:41;8.07;;;7.03;;
23658;SDS011;12006;42.666;23.326;2022-08-16T08:18:08;8.98;;;7.72;;
23658;SDS011;12006;42.666;23.326;2022-08-16T08:20:33;8.48;;;7.55;;
23658;SDS011;12006;42.666;23.326;2022-08-16T08:22:59;6.78;;;6.15;;
23658;SDS011;12006;42.666;23.326;2022-08-16T08:25:25;7.03;;;5.97;;
23658;SDS011;12006;42.666;23.326;2022-08-16T08:27:50;6.22;;;5.63;;
23658;SDS011;12006;42.666;23.326;2022-08-16T08:30:15;6.63;;;5.95;;
23658;SDS011;12006;42.666;23.326;2022-08-16T08:32:41;5.32;;;4.82;;
23658;SDS011;12006;42.666;23.326;2022-08-16T08:35:07;4.93;;;4.45;;
23658;SDS011;12006;42.666;23.326;2022-08-16T08:37:33;5.60;;;5.10;;
23658;SDS011;12006;42.666;23.326;2022-08-16T08:39:59;6.07;;;5.47;;
23658;SDS011;12006;42.666;23.326;2022-08-16T08:42:25;6.03;;;4.88;;
23658;SDS011;12006;42.666;23.326;2022-08-16T08:44:50;6.32;;;5.47;;
23658;SDS011;12006;42.666;23.326;2022-08-16T08:47:15;6.53;;;5.07;;
23658;SDS011;12006;42.666;23.326;2022-08-16T08:49:41;4.38;;;3.97;;
23658;SDS011;12006;42.666;23.326;2022-08-16T08:52:07;3.80;;;3.50;;
23658;SDS011;12006;42.666;23.326;2022-08-16T08:54:32;4.60;;;3.50;;
23658;SDS011;12006;42.666;23.326;2022-08-16T08:56:58;4.53;;;3.78;;
23658;SDS011;12006;42.666;23.326;2022-08-16T08:59:23;3.58;;;3.28;;
23658;SDS011;12006;42.666;23.326;2022-08-16T09:01:49;3.65;;;3.35;;
23658;SDS011;12006;42.666;23.326;2022-08-16T09:04:15;3.88;;;3.47;;
23658;SDS011;12006;42.666;23.326;2022-08-16T09:06:41;3.60;;;3.30;;
23658;SDS011;12006;42.666;23.326;2022-08-16T09:09:07;3.70;;;3.40;;
23658;SDS011;12006;42.666;23.326;2022-08-16T09:11:33;3.63;;;3.33;;
23658;SDS011;12006;42.666;23.326;2022-08-16T09:13:59;3.35;;;3.03;;
23658;SDS011;12006;42.666;23.326;2022-08-16T09:16:25;2.90;;;2.70;;
23658;SDS011;12006;42.666;23.326;2022-08-16T09:18:50;4.10;;;3.80;;
23658;SDS011;12006;42.666;23.326;2022-08-16T09:21:16;4.22;;;3.83;;
23658;SDS011;12006;42.666;23.326;2022-08-16T09:23:42;4.45;;;4.05;;
23658;SDS011;12006;42.666;23.326;2022-08-16T09:26:07;4.50;;;3.22;;
23658;SDS011;12006;42.666;23.326;2022-08-16T09:28:35;4.28;;;3.50;;
23658;SDS011;12006;42.666;23.326;2022-08-16T09:31:00;3.55;;;3.25;;
23658;SDS011;12006;42.666;23.326;2022-08-16T09:33:27;6.15;;;3.58;;
23658;SDS011;12006;42.666;23.326;2022-08-16T09:35:54;4.68;;;3.95;;
23658;SDS011;12006;42.666;23.326;2022-08-16T09:38:19;4.05;;;3.00;;
23658;SDS011;12006;42.666;23.326;2022-08-16T09:40:45;3.70;;;3.35;;
23658;SDS011;12006;42.666;23.326;2022-08-16T09:43:15;3.80;;;3.50;;
23658;SDS011;12006;42.666;23.326;2022-08-16T09:45:40;4.03;;;3.55;;
23658;SDS011;12006;42.666;23.326;2022-08-16T09:48:10;4.07;;;3.78;;
23658;SDS011;12006;42.666;23.326;2022-08-16T09:50:36;4.82;;;4.13;;
23658;SDS011;12006;42.666;23.326;2022-08-16T09:53:02;4.35;;;3.55;;
23658;SDS011;12006;42.666;23.326;2022-08-16T09:55:28;4.57;;;4.18;;
23658;SDS011;12006;42.666;23.326;2022-08-16T09:57:53;3.83;;;3.50;;
23658;SDS011;12006;42.666;23.326;2022-08-16T10:00:19;4.22;;;3.83;;
23658;SDS011;12006;42.666;23.326;2022-08-16T10:02:44;3.63;;;3.33;;
23658;SDS011;12006;42.666;23.326;2022-08-16T10:05:11;3.58;;;3.20;;
23658;SDS011;12006;42.666;23.326;2022-08-16T10:07:36;4.13;;;3.72;;
23658;SDS011;12006;42.666;23.326;2022-08-16T10:10:03;3.83;;;3.53;;
23658;SDS011;12006;42.666;23.326;2022-08-16T10:12:28;3.13;;;2.83;;
23658;SDS011;12006;42.666;23.326;2022-08-16T10:15:13;3.63;;;3.33;;
23658;SDS011;12006;42.666;23.326;2022-08-16T10:17:39;4.20;;;3.85;;
23658;SDS011;12006;42.666;23.326;2022-08-16T10:20:07;4.03;;;3.67;;
23658;SDS011;12006;42.666;23.326;2022-08-16T10:22:34;3.20;;;2.92;;
23658;SDS011;12006;42.666;23.326;2022-08-16T10:24:59;4.03;;;3.63;;
23658;SDS011;12006;42.666;23.326;2022-08-16T10:27:24;3.95;;;3.65;;
23658;SDS011;12006;42.666;23.326;2022-08-16T10:29:50;4.28;;;3.50;;
23658;SDS011;12006;42.666;23.326;2022-08-16T10:32:15;4.10;;;3.25;;
23658;SDS011;12006;42.666;23.326;2022-08-16T10:34:40;3.80;;;3.50;;
23658;SDS011;12006;42.666;23.326;2022-08-16T10:37:05;6.28;;;3.63;;
23658;SDS011;12006;42.666;23.326;2022-08-16T10:39:31;3.75;;;3.45;;
23658;SDS011;12006;42.666;23.326;2022-08-16T10:41:56;4.57;;;4.10;;
23658;SDS011;12006;42.666;23.326;2022-08-16T10:44:22;3.88;;;3.45;;
23658;SDS011;12006;42.666;23.326;2022-08-16T10:46:47;4.85;;;3.72;;
23658;SDS011;12006;42.666;23.326;2022-08-16T10:49:13;4.28;;;3.92;;
23658;SDS011;12006;42.666;23.326;2022-08-16T10:51:38;4.20;;;3.78;;
23658;SDS011;12006;42.666;23.326;2022-08-16T10:54:05;4.97;;;4.55;;
23658;SDS011;12006;42.666;23.326;2022-08-16T10:56:31;4.10;;;3.70;;
23658;SDS011;12006;42.666;23.326;2022-08-16T10:58:56;3.70;;;3.40;;
23658;SDS011;12006;42.666;23.326;2022-08-16T11:01:23;5.43;;;3.97;;
23658;SDS011;12006;42.666;23.326;2022-08-16T11:03:49;5.95;;;4.85;;
23658;SDS011;12006;42.666;23.326;2022-08-16T11:06:15;3.83;;;3.53;;
23658;SDS011;12006;42.666;23.326;2022-08-16T11:08:40;3.85;;;3.45;;
23658;SDS011;12006;42.666;23.326;2022-08-16T11:11:05;3.85;;;3.50;;
23658;SDS011;12006;42.666;23.326;2022-08-16T11:13:31;3.80;;;3.42;;
23658;SDS011;12006;42.666;23.326;2022-08-16T11:15:56;3.78;;;3.45;;
23658;SDS011;12006;42.666;23.326;2022-08-16T11:18:24;4.60;;;3.78;;
23658;SDS011;12006;42.666;23.326;2022-08-16T11:20:49;5.38;;;4.53;;
23658;SDS011;12006;42.666;23.326;2022-08-16T11:23:15;4.38;;;3.97;;
23658;SDS011;12006;42.666;23.326;2022-08-16T11:25:40;4.95;;;3.08;;
23658;SDS011;12006;42.666;23.326;2022-08-16T11:28:07;4.13;;;3.72;;
23658;SDS011;12006;42.666;23.326;2022-08-16T11:30:33;3.60;;;3.30;;
23658;SDS011;12006;42.666;23.326;2022-08-16T11:32:59;3.70;;;3.40;;
23658;SDS011;12006;42.666;23.326;2022-08-16T11:35:28;5.05;;;3.88;;
23658;SDS011;12006;42.666;23.326;2022-08-16T11:38:04;3.83;;;3.53;;
23658;SDS011;12006;42.666;23.326;2022-08-16T11:40:35;4.25;;;3.85;;
23658;SDS011;12006;42.666;23.326;2022-08-16T11:43:02;4.38;;;3.97;;
23658;SDS011;12006;42.666;23.326;2022-08-16T11:45:27;6.20;;;5.40;;
23658;SDS011;12006;42.666;23.326;2022-08-16T11:47:52;3.90;;;3.58;;
23658;SDS011;12006;42.666;23.326;2022-08-16T11:50:19;4.40;;;4.00;;
23658;SDS011;12006;42.666;23.326;2022-08-16T11:52:44;4.85;;;3.97;;
23658;SDS011;12006;42.666;23.326;2022-08-16T11:55:10;3.90;;;3.60;;
23658;SDS011;12006;42.666;23.326;2022-08-16T11:57:36;3.42;;;3.13;;
23658;SDS011;12006;42.666;23.326;2022-08-16T12:00:04;4.65;;;3.63;;
23658;SDS011;12006;42.666;23.326;2022-08-16T12:02:30;6.28;;;5.40;;
23658;SDS011;12006;42.666;23.326;2022-08-16T12:04:55;3.15;;;2.85;;
23658;SDS011;12006;42.666;23.326;2022-08-16T12:07:21;2.83;;;2.63;;
23658;SDS011;12006;42.666;23.326;2022-08-16T12:09:46;3.05;;;2.67;;
23658;SDS011;12006;42.666;23.326;2022-08-16T12:12:12;2.80;;;2.60;;
23658;SDS011;12006;42.666;23.326;2022-08-16T12:14:37;4.28;;;2.50;;
23658;SDS011;12006;42.666;23.326;2022-08-16T12:17:03;2.85;;;2.65;;
23658;SDS011;12006;42.666;23.326;2022-08-16T12:19:29;4.00;;;2.50;;
23658;SDS011;12006;42.666;23.326;2022-08-16T12:21:55;3.05;;;2.58;;
23658;SDS011;12006;42.666;23.326;2022-08-16T12:24:20;3.05;;;2.75;;
23658;SDS011;12006;42.666;23.326;2022-08-16T12:26:46;3.13;;;2.92;;
23658;SDS011;12006;42.666;23.326;2022-08-16T12:29:12;2.70;;;2.50;;
23658;SDS011;12006;42.666;23.326;2022-08-16T12:31:38;2.92;;;2.72;;
23658;SDS011;12006;42.666;23.326;2022-08-16T12:34:03;4.35;;;3.38;;
23658;SDS011;12006;42.666;23.326;2022-08-16T12:36:31;4.00;;;3.65;;
23658;SDS011;12006;42.666;23.326;2022-08-16T12:38:56;3.80;;;3.50;;
23658;SDS011;12006;42.666;23.326;2022-08-16T12:41:22;7.03;;;6.35;;
23658;SDS011;12006;42.666;23.326;2022-08-16T12:43:47;6.15;;;4.53;;
23658;SDS011;12006;42.666;23.326;2022-08-16T12:46:12;5.70;;;5.10;;
23658;SDS011;12006;42.666;23.326;2022-08-16T12:48:38;6.53;;;5.90;;
23658;SDS011;12006;42.666;23.326;2022-08-16T12:51:23;7.50;;;6.25;;
23658;SDS011;12006;42.666;23.326;2022-08-16T12:53:50;4.05;;;3.47;;
23658;SDS011;12006;42.666;23.326;2022-08-16T12:56:16;5.32;;;4.50;;
23658;SDS011;12006;42.666;23.326;2022-08-16T12:58:43;3.40;;;3.10;;
23658;SDS011;12006;42.666;23.326;2022-08-16T13:01:10;4.13;;;3.78;;
23658;SDS011;12006;42.666;23.326;2022-08-16T13:03:35;4.90;;;4.00;;
23658;SDS011;12006;42.666;23.326;2022-08-16T13:06:03;4.75;;;4.35;;
23658;SDS011;12006;42.666;23.326;2022-08-16T13:08:28;5.25;;;4.75;;
23658;SDS011;12006;42.666;23.326;2022-08-16T13:10:54;4.15;;;3.53;;
23658;SDS011;12006;42.666;23.326;2022-08-16T13:13:20;3.72;;;3.42;;
23658;SDS011;12006;42.666;23.326;2022-08-16T13:15:56;3.42;;;3.13;;
23658;SDS011;12006;42.666;23.326;2022-08-16T13:18:22;3.58;;;3.20;;
23658;SDS011;12006;42.666;23.326;2022-08-16T13:20:48;3.30;;;3.00;;
23658;SDS011;12006;42.666;23.326;2022-08-16T13:23:13;3.80;;;3.10;;
23658;SDS011;12006;42.666;23.326;2022-08-16T13:25:41;4.28;;;3.78;;
23658;SDS011;12006;42.666;23.326;2022-08-16T13:28:07;2.90;;;2.60;;
23658;SDS011;12006;42.666;23.326;2022-08-16T13:30:35;3.20;;;2.80;;
23658;SDS011;12006;42.666;23.326;2022-08-16T13:33:00;3.28;;;2.70;;
23658;SDS011;12006;42.666;23.326;2022-08-16T13:35:26;3.15;;;2.90;;
23658;SDS011;12006;42.666;23.326;2022-08-16T13:37:51;4.65;;;2.67;;
23658;SDS011;12006;42.666;23.326;2022-08-16T13:40:17;4.05;;;2.50;;
23658;SDS011;12006;42.666;23.326;2022-08-16T13:42:42;2.53;;;2.22;;
23658;SDS011;12006;42.666;23.326;2022-08-16T13:45:08;2.15;;;1.70;;
23658;SDS011;12006;42.666;23.326;2022-08-16T13:47:34;1.92;;;1.83;;
23658;SDS011;12006;42.666;23.326;2022-08-16T13:49:59;3.42;;;2.58;;
23658;SDS011;12006;42.666;23.326;2022-08-16T13:52:24;3.65;;;2.78;;
23658;SDS011;12006;42.666;23.326;2022-08-16T13:54:50;2.35;;;2.15;;
23658;SDS011;12006;42.666;23.326;2022-08-16T13:57:15;2.10;;;1.98;;
23658;SDS011;12006;42.666;23.326;2022-08-16T13:59:40;3.22;;;2.70;;
23658;SDS011;12006;42.666;23.326;2022-08-16T14:02:07;3.53;;;2.35;;
23658;SDS011;12006;42.666;23.326;2022-08-16T14:04:34;3.17;;;2.30;;
23658;SDS011;12006;42.666;23.326;2022-08-16T14:07:01;2.42;;;2.22;;
23658;SDS011;12006;42.666;23.326;2022-08-16T14:09:27;2.42;;;2.03;;
23658;SDS011;12006;42.666;23.326;2022-08-16T14:11:53;2.92;;;2.15;;
23658;SDS011;12006;42.666;23.326;2022-08-16T14:14:18;1.90;;;1.80;;
23658;SDS011;12006;42.666;23.326;2022-08-16T14:16:43;2.40;;;2.00;;
23658;SDS011;12006;42.666;23.326;2022-08-16T14:19:09;2.60;;;2.30;;
23658;SDS011;12006;42.666;23.326;2022-08-16T14:21:36;3.40;;;2.45;;
23658;SDS011;12006;42.666;23.326;2022-08-16T14:24:04;2.60;;;2.30;;
23658;SDS011;12006;42.666;23.326;2022-08-16T14:26:30;2.63;;;2.03;;